createdAt,value
2017-03-10T00:00:52.747Z,0
2017-03-10T00:02:03.472Z,0
2017-03-10T00:03:13.859Z,0
2017-03-10T00:04:24.589Z,0
2017-03-10T00:05:34.937Z,0
2017-03-10T00:06:45.264Z,0
2017-03-10T00:07:55.589Z,0
2017-03-10T00:09:06.307Z,0
2017-03-10T00:10:17.030Z,0
2017-03-10T00:11:27.786Z,0
2017-03-10T00:12:37.715Z,0
2017-03-10T00:13:48.443Z,0
2017-03-10T00:14:58.775Z,0
2017-03-10T00:16:09.498Z,0
2017-03-10T00:17:19.450Z,0
2017-03-10T00:18:29.778Z,0
2017-03-10T00:19:40.098Z,0
2017-03-10T00:20:50.425Z,0
2017-03-10T00:22:01.146Z,0
2017-03-10T00:23:11.457Z,0
2017-03-10T00:24:21.763Z,0
2017-03-10T00:25:32.492Z,0
2017-03-10T00:26:42.818Z,0
2017-03-10T00:27:53.148Z,0
2017-03-10T00:29:03.876Z,0
2017-03-10T00:30:14.208Z,0
2017-03-10T00:31:24.582Z,0
2017-03-10T00:32:35.316Z,0
2017-03-10T00:33:45.636Z,0
2017-03-10T00:34:55.941Z,0
2017-03-10T00:36:06.281Z,0
2017-03-10T00:37:17.002Z,0
2017-03-10T00:38:26.930Z,0
2017-03-10T00:39:37.262Z,0
2017-03-10T00:40:47.998Z,0
2017-03-10T00:41:58.344Z,0
2017-03-10T00:43:08.295Z,0
2017-03-10T00:44:19.004Z,0
2017-03-10T00:45:29.733Z,0
2017-03-10T00:46:40.083Z,0
2017-03-10T00:47:50.813Z,0
2017-03-10T00:49:00.773Z,0
2017-03-10T00:50:11.113Z,0
2017-03-10T00:51:21.848Z,0
2017-03-10T00:52:31.786Z,0
2017-03-10T00:53:42.145Z,0
2017-03-10T00:54:52.088Z,0
2017-03-10T00:56:02.045Z,0
2017-03-10T00:57:11.999Z,0
2017-03-10T00:58:22.718Z,0
2017-03-10T00:59:33.452Z,0
2017-03-10T01:00:44.152Z,0
2017-03-10T01:01:54.499Z,0
2017-03-10T01:03:04.836Z,0
2017-03-10T01:04:15.189Z,0
2017-03-10T01:05:25.517Z,0
2017-03-10T01:06:35.851Z,0
2017-03-10T01:07:46.206Z,0
2017-03-10T01:08:56.929Z,0
2017-03-10T01:10:06.871Z,0
2017-03-10T01:11:17.203Z,0
2017-03-10T01:12:27.525Z,0
2017-03-10T01:13:39.258Z,0
2017-03-10T01:14:49.968Z,0
2017-03-10T01:16:00.684Z,0
2017-03-10T01:17:11.046Z,0
2017-03-10T01:18:21.370Z,0
2017-03-10T01:19:32.110Z,0
2017-03-10T01:20:42.456Z,0
2017-03-10T01:21:53.213Z,0
2017-03-10T01:23:03.948Z,0
2017-03-10T01:24:13.908Z,0
2017-03-10T01:25:24.627Z,0
2017-03-10T01:26:35.362Z,0
2017-03-10T01:27:46.080Z,0
2017-03-10T01:28:56.409Z,0
2017-03-10T01:30:06.351Z,0
2017-03-10T01:31:17.117Z,0
2017-03-10T01:32:27.845Z,0
2017-03-10T01:33:38.152Z,0
2017-03-10T01:34:48.890Z,0
2017-03-10T01:35:59.193Z,0
2017-03-10T01:37:08.755Z,0
2017-03-10T01:38:19.484Z,0
2017-03-10T01:39:30.268Z,0
2017-03-10T01:40:40.596Z,0
2017-03-10T01:41:51.323Z,0
2017-03-10T01:43:02.053Z,0
2017-03-10T01:44:12.779Z,0
2017-03-10T01:45:23.104Z,0
2017-03-10T01:46:33.415Z,0
2017-03-10T01:47:44.137Z,0
2017-03-10T01:48:54.483Z,0
2017-03-10T01:50:04.437Z,0
2017-03-10T01:51:14.764Z,0
2017-03-10T01:52:25.498Z,0
2017-03-10T01:53:36.285Z,0
2017-03-10T01:54:47.073Z,0
2017-03-10T01:55:57.472Z,0
2017-03-10T01:57:07.855Z,0
2017-03-10T01:58:18.642Z,0
2017-03-10T01:59:28.237Z,0
2017-03-10T02:00:38.656Z,0
2017-03-10T02:01:49.046Z,0
2017-03-10T02:02:59.839Z,0
2017-03-10T02:04:10.629Z,0
2017-03-10T02:05:21.412Z,0
2017-03-10T02:06:31.802Z,0
2017-03-10T02:07:42.211Z,0
2017-03-10T02:08:53.011Z,0
2017-03-10T02:10:03.827Z,0
2017-03-10T02:11:14.612Z,0
2017-03-10T02:12:25.010Z,0
2017-03-10T02:13:35.789Z,0
2017-03-10T02:14:45.830Z,0
2017-03-10T02:15:55.880Z,0
2017-03-10T02:17:06.269Z,0
2017-03-10T02:18:17.106Z,0
2017-03-10T02:19:27.887Z,0
2017-03-10T02:20:38.269Z,0
2017-03-10T02:21:48.303Z,0
2017-03-10T02:22:58.687Z,0
2017-03-10T02:24:09.454Z,0
2017-03-10T02:25:19.856Z,0
2017-03-10T02:26:30.688Z,0
2017-03-10T02:27:41.454Z,0
2017-03-10T02:28:51.851Z,0
2017-03-10T02:30:02.262Z,0
2017-03-10T02:31:12.643Z,0
2017-03-10T02:32:23.036Z,0
2017-03-10T02:33:33.817Z,0
2017-03-10T02:34:44.608Z,0
2017-03-10T02:35:55.011Z,0
2017-03-10T02:37:05.794Z,0
2017-03-10T02:38:16.565Z,0
2017-03-10T02:39:26.151Z,0
2017-03-10T02:40:36.138Z,0
2017-03-10T02:41:46.922Z,0
2017-03-10T02:42:57.732Z,0
2017-03-10T02:44:07.738Z,0
2017-03-10T02:45:18.151Z,0
2017-03-10T02:46:28.965Z,0
2017-03-10T02:47:39.763Z,0
2017-03-10T02:48:50.553Z,0
2017-03-10T02:50:00.551Z,0
2017-03-10T02:51:10.952Z,0
2017-03-10T02:52:21.761Z,0
2017-03-10T02:53:32.533Z,0
2017-03-10T02:54:43.308Z,0
2017-03-10T02:55:54.077Z,0
2017-03-10T02:57:04.509Z,0
2017-03-10T02:58:15.290Z,0
2017-03-10T02:59:26.080Z,0
2017-03-10T03:00:36.869Z,0
2017-03-10T03:32:14.904Z,0
2017-03-10T03:33:24.499Z,0
2017-03-10T03:34:34.917Z,0
2017-03-10T03:35:45.688Z,0
2017-03-10T03:36:55.686Z,0
2017-03-10T03:38:06.456Z,0
2017-03-10T03:39:16.848Z,0
2017-03-10T03:40:27.674Z,0
2017-03-10T03:41:38.066Z,0
2017-03-10T03:42:48.448Z,0
2017-03-10T03:43:58.847Z,0
2017-03-10T03:45:09.235Z,0
2017-03-10T03:46:20.037Z,0
2017-03-10T03:47:30.846Z,0
2017-03-10T03:48:41.636Z,0
2017-03-10T03:49:52.052Z,0
2017-03-10T03:51:02.451Z,0
2017-03-10T03:52:13.237Z,0
2017-03-10T03:53:24.057Z,0
2017-03-10T03:54:34.085Z,0
2017-03-10T03:55:44.913Z,0
2017-03-10T03:56:55.734Z,0
2017-03-10T03:58:06.141Z,0
2017-03-10T03:59:16.128Z,0
2017-03-10T04:00:26.518Z,0
2017-03-10T04:01:36.511Z,0
2017-03-10T04:02:46.487Z,0
2017-03-10T04:03:57.244Z,0
2017-03-10T04:05:07.261Z,0
2017-03-10T04:06:17.687Z,0
2017-03-10T04:07:28.504Z,0
2017-03-10T04:08:39.282Z,0
2017-03-10T04:09:50.080Z,0
2017-03-10T04:11:00.483Z,0
2017-03-10T04:12:10.880Z,0
2017-03-10T04:13:21.287Z,0
2017-03-10T04:14:31.680Z,0
2017-03-10T04:15:42.477Z,0
2017-03-10T04:16:53.278Z,0
2017-03-10T04:18:03.274Z,0
2017-03-10T04:19:13.688Z,0
2017-03-10T04:20:24.083Z,0
2017-03-10T04:21:34.851Z,0
2017-03-10T04:22:45.269Z,0
2017-03-10T04:23:55.699Z,0
2017-03-10T04:25:06.489Z,0
2017-03-10T04:26:17.256Z,0
2017-03-10T04:27:28.048Z,0
2017-03-10T04:28:38.433Z,0
2017-03-10T04:29:48.822Z,0
2017-03-10T04:30:59.227Z,0
2017-03-10T04:32:09.623Z,0
2017-03-10T04:33:20.051Z,0
2017-03-10T04:34:30.439Z,0
2017-03-10T04:35:40.850Z,0
2017-03-10T04:36:50.882Z,0
2017-03-10T04:38:01.668Z,0
2017-03-10T04:39:12.429Z,0
2017-03-10T04:40:22.841Z,0
2017-03-10T04:41:33.633Z,0
2017-03-10T04:42:44.051Z,0
2017-03-10T04:43:54.841Z,0
2017-03-10T04:45:05.637Z,0
2017-03-10T04:46:16.401Z,0
2017-03-10T04:47:26.416Z,0
2017-03-10T04:48:37.196Z,0
2017-03-10T04:49:47.606Z,0
2017-03-10T04:50:57.983Z,0
2017-03-10T04:52:08.788Z,0
2017-03-10T04:53:19.192Z,0
2017-03-10T04:54:29.592Z,0
2017-03-10T04:55:39.985Z,0
2017-03-10T04:56:50.775Z,0
2017-03-10T04:58:01.560Z,0
2017-03-10T04:59:11.540Z,0
2017-03-10T05:00:21.910Z,0
2017-03-10T05:01:32.713Z,0
2017-03-10T05:02:43.515Z,0
2017-03-10T05:03:54.322Z,0
2017-03-10T05:05:04.711Z,0
2017-03-10T05:06:15.482Z,0
2017-03-10T05:07:26.259Z,0
2017-03-10T05:08:37.037Z,0
2017-03-10T05:09:47.025Z,0
2017-03-10T05:10:57.836Z,0
2017-03-10T05:12:08.641Z,0
2017-03-10T05:13:19.035Z,0
2017-03-10T05:14:29.046Z,0
2017-03-10T05:15:39.838Z,0
2017-03-10T05:16:50.611Z,0
2017-03-10T05:18:01.004Z,5
2017-03-10T05:19:11.774Z,5
2017-03-10T05:20:22.166Z,5
2017-03-10T05:21:32.168Z,5
2017-03-10T05:22:42.591Z,5
2017-03-10T05:23:53.375Z,5
2017-03-10T05:25:03.744Z,5
2017-03-10T05:26:14.125Z,10
2017-03-10T05:27:24.932Z,10
2017-03-10T05:28:35.737Z,10
2017-03-10T05:29:46.106Z,10
2017-03-10T05:30:56.886Z,10
2017-03-10T05:32:06.875Z,10
2017-03-10T05:33:17.246Z,15
2017-03-10T05:34:27.638Z,15
2017-03-10T05:35:37.629Z,15
2017-03-10T05:36:47.639Z,15
2017-03-10T05:37:57.638Z,15
2017-03-10T05:39:08.443Z,20
2017-03-10T05:40:18.436Z,20
2017-03-10T05:41:28.822Z,20
2017-03-10T05:42:39.216Z,20
2017-03-10T05:43:50.021Z,25
2017-03-10T05:45:00.422Z,25
2017-03-10T05:46:11.204Z,25
2017-03-10T05:47:22.008Z,30
2017-03-10T05:48:32.433Z,30
2017-03-10T05:49:42.823Z,30
2017-03-10T05:50:52.810Z,40
2017-03-10T05:52:03.198Z,40
2017-03-10T05:53:13.993Z,45
2017-03-10T05:54:24.392Z,50
2017-03-10T05:55:34.793Z,55
2017-03-10T05:56:45.571Z,55
2017-03-10T05:57:56.373Z,60
2017-03-10T05:59:07.155Z,70
2017-03-10T06:00:17.942Z,70
2017-03-10T06:01:28.329Z,70
2017-03-10T06:02:39.111Z,70
2017-03-10T06:03:49.905Z,70
2017-03-10T06:05:00.697Z,70
2017-03-10T06:06:11.092Z,65
2017-03-10T06:07:21.096Z,65
2017-03-10T06:08:31.495Z,65
2017-03-10T06:09:41.883Z,65
2017-03-10T06:10:52.657Z,50
2017-03-10T06:12:03.423Z,40
2017-03-10T06:13:13.443Z,35
2017-03-10T06:14:23.830Z,30
2017-03-10T06:15:34.213Z,30
2017-03-10T06:16:44.985Z,25
2017-03-10T06:17:55.775Z,25
2017-03-10T06:19:06.568Z,25
2017-03-10T06:20:16.566Z,30
2017-03-10T06:21:27.357Z,30
2017-03-10T06:22:37.739Z,30
2017-03-10T06:23:47.349Z,30
2017-03-10T06:24:57.739Z,35
2017-03-10T06:26:08.535Z,40
2017-03-10T06:27:18.944Z,40
2017-03-10T06:28:29.330Z,45
2017-03-10T06:29:39.723Z,50
2017-03-10T06:30:50.104Z,50
2017-03-10T06:32:00.498Z,50
2017-03-10T06:33:10.489Z,55
2017-03-10T06:34:20.886Z,60
2017-03-10T06:35:31.670Z,70
2017-03-10T06:36:42.447Z,65
2017-03-10T06:37:53.226Z,65
2017-03-10T06:39:04.020Z,65
2017-03-10T06:40:14.407Z,70
2017-03-10T06:41:24.801Z,65
2017-03-10T06:42:35.603Z,60
2017-03-10T06:43:46.009Z,60
2017-03-10T06:44:56.795Z,60
2017-03-10T06:46:07.585Z,65
2017-03-10T06:47:18.010Z,65
2017-03-10T06:48:28.404Z,65
2017-03-10T06:49:39.184Z,65
2017-03-10T06:50:49.599Z,65
2017-03-10T06:52:00.385Z,70
2017-03-10T06:53:10.786Z,75
2017-03-10T06:54:20.771Z,70
2017-03-10T06:55:30.767Z,70
2017-03-10T06:56:41.554Z,75
2017-03-10T06:57:52.345Z,80
2017-03-10T06:59:02.747Z,80
2017-03-10T07:00:13.128Z,85
2017-03-10T07:01:23.522Z,95
2017-03-10T07:02:33.907Z,95
2017-03-10T07:03:44.710Z,95
2017-03-10T07:04:55.130Z,105
2017-03-10T07:06:05.138Z,110
2017-03-10T07:07:15.519Z,115
2017-03-10T07:08:26.313Z,120
2017-03-10T07:09:36.743Z,135
2017-03-10T07:10:47.546Z,120
2017-03-10T07:11:57.580Z,115
2017-03-10T07:13:07.973Z,110
2017-03-10T07:14:18.781Z,110
2017-03-10T07:15:29.576Z,105
2017-03-10T07:16:39.565Z,110
2017-03-10T07:17:49.576Z,110
2017-03-10T07:18:59.974Z,120
2017-03-10T07:20:10.742Z,140
2017-03-10T07:21:21.546Z,140
2017-03-10T07:22:32.335Z,115
2017-03-10T07:23:42.709Z,115
2017-03-10T07:24:53.480Z,110
2017-03-10T07:26:03.867Z,105
2017-03-10T07:27:14.254Z,105
2017-03-10T07:28:24.626Z,105
2017-03-10T07:29:34.616Z,85
2017-03-10T07:30:45.400Z,85
2017-03-10T07:31:55.767Z,90
2017-03-10T07:33:06.159Z,80
2017-03-10T07:34:16.139Z,80
2017-03-10T07:35:26.935Z,85
2017-03-10T07:36:37.720Z,85
2017-03-10T07:37:48.508Z,90
2017-03-10T07:38:58.932Z,105
2017-03-10T07:40:09.331Z,115
2017-03-10T07:41:19.359Z,125
2017-03-10T07:42:30.220Z,115
2017-03-10T07:43:40.999Z,125
2017-03-10T07:44:51.791Z,125
2017-03-10T07:46:02.609Z,135
2017-03-10T07:47:13.002Z,150
2017-03-10T07:48:23.789Z,150
2017-03-10T07:49:34.186Z,150
2017-03-10T07:50:44.592Z,150
2017-03-10T07:51:54.190Z,165
2017-03-10T07:53:04.638Z,170
2017-03-10T07:54:15.043Z,175
2017-03-10T07:55:25.061Z,185
2017-03-10T07:56:35.057Z,210
2017-03-10T07:57:45.854Z,210
2017-03-10T07:58:56.651Z,155
2017-03-10T08:00:07.443Z,175
2017-03-10T08:01:17.822Z,145
2017-03-10T08:02:28.210Z,145
2017-03-10T08:03:38.232Z,155
2017-03-10T08:04:48.622Z,155
2017-03-10T08:05:58.217Z,160
2017-03-10T08:07:08.597Z,190
2017-03-10T08:08:19.429Z,170
2017-03-10T08:09:29.414Z,165
2017-03-10T08:10:39.831Z,160
2017-03-10T08:11:50.228Z,150
2017-03-10T08:13:00.611Z,155
2017-03-10T08:14:11.383Z,175
2017-03-10T08:15:21.378Z,220
2017-03-10T08:16:31.381Z,190
2017-03-10T08:17:42.174Z,210
2017-03-10T08:18:52.960Z,190
2017-03-10T08:20:03.368Z,175
2017-03-10T08:21:14.143Z,165
2017-03-10T08:22:24.136Z,150
2017-03-10T08:23:34.940Z,155
2017-03-10T08:24:45.740Z,155
2017-03-10T08:25:56.514Z,155
2017-03-10T08:27:07.347Z,145
2017-03-10T08:28:17.369Z,155
2017-03-10T08:29:28.429Z,160
2017-03-10T08:30:39.219Z,145
2017-03-10T08:31:49.994Z,140
2017-03-10T08:33:00.384Z,145
2017-03-10T08:34:10.011Z,165
2017-03-10T08:35:20.789Z,180
2017-03-10T08:36:31.637Z,180
2017-03-10T08:37:42.446Z,190
2017-03-10T08:38:52.820Z,200
2017-03-10T08:40:02.836Z,185
2017-03-10T08:41:13.237Z,200
2017-03-10T08:42:24.028Z,210
2017-03-10T08:43:34.830Z,180
2017-03-10T08:44:45.613Z,180
2017-03-10T08:45:55.613Z,180
2017-03-10T08:47:06.412Z,160
2017-03-10T08:48:17.203Z,175
2017-03-10T08:49:27.203Z,180
2017-03-10T08:50:37.608Z,210
2017-03-10T08:51:48.397Z,235
2017-03-10T08:52:59.179Z,255
2017-03-10T08:54:10.013Z,220
2017-03-10T08:55:20.398Z,220
2017-03-10T08:56:30.813Z,215
2017-03-10T08:57:41.219Z,295
2017-03-10T08:58:52.032Z,225
2017-03-10T09:00:02.074Z,205
2017-03-10T09:01:12.893Z,165
2017-03-10T09:02:23.266Z,145
2017-03-10T09:03:34.075Z,140
2017-03-10T09:04:44.859Z,165
2017-03-10T09:05:54.861Z,165
2017-03-10T09:07:05.246Z,130
2017-03-10T09:08:15.706Z,125
2017-03-10T09:09:25.713Z,110
2017-03-10T09:10:36.122Z,115
2017-03-10T09:11:46.890Z,95
2017-03-10T09:12:57.699Z,90
2017-03-10T09:14:08.085Z,105
2017-03-10T09:15:18.891Z,145
2017-03-10T09:16:28.891Z,140
2017-03-10T09:17:38.868Z,120
2017-03-10T09:18:49.246Z,110
2017-03-10T09:19:59.238Z,95
2017-03-10T09:21:09.621Z,115
2017-03-10T09:22:20.008Z,145
2017-03-10T09:23:30.838Z,150
2017-03-10T09:24:40.868Z,155
2017-03-10T09:25:50.886Z,160
2017-03-10T09:27:01.697Z,160
2017-03-10T09:28:11.310Z,175
2017-03-10T09:29:22.113Z,190
2017-03-10T09:30:32.909Z,170
2017-03-10T09:31:43.316Z,185
2017-03-10T09:32:53.747Z,210
2017-03-10T09:34:04.165Z,205
2017-03-10T09:35:14.575Z,195
2017-03-10T09:36:25.352Z,180
2017-03-10T09:37:36.131Z,190
2017-03-10T09:38:46.517Z,190
2017-03-10T09:39:56.922Z,185
2017-03-10T09:41:07.306Z,210
2017-03-10T09:42:17.709Z,200
2017-03-10T09:43:28.116Z,160
2017-03-10T09:44:37.715Z,130
2017-03-10T09:45:48.512Z,135
2017-03-10T09:46:58.939Z,160
2017-03-10T09:48:09.740Z,155
2017-03-10T09:49:20.154Z,140
2017-03-10T09:50:30.532Z,150
2017-03-10T09:51:41.306Z,175
2017-03-10T09:52:51.722Z,175
2017-03-10T09:54:02.089Z,195
2017-03-10T09:55:12.075Z,185
2017-03-10T09:56:21.667Z,140
2017-03-10T09:57:32.063Z,120
2017-03-10T09:58:42.838Z,135
2017-03-10T09:59:53.260Z,145
2017-03-10T10:01:04.062Z,165
2017-03-10T10:02:14.874Z,140
2017-03-10T10:03:25.266Z,135
2017-03-10T10:04:35.673Z,135
2017-03-10T10:05:46.062Z,130
2017-03-10T10:06:56.445Z,145
2017-03-10T10:08:07.246Z,160
2017-03-10T10:09:18.060Z,170
2017-03-10T10:10:28.485Z,165
2017-03-10T10:11:39.273Z,170
2017-03-10T10:12:49.661Z,180
2017-03-10T10:14:00.459Z,180
2017-03-10T10:15:11.249Z,175
2017-03-10T10:16:22.036Z,165
2017-03-10T10:17:32.072Z,155
2017-03-10T10:18:42.866Z,125
2017-03-10T10:19:53.648Z,110
2017-03-10T10:21:04.085Z,105
2017-03-10T10:22:14.860Z,100
2017-03-10T10:23:25.271Z,105
2017-03-10T10:24:35.665Z,110
2017-03-10T10:25:46.475Z,110
2017-03-10T10:26:56.868Z,115
2017-03-10T10:28:07.654Z,140
2017-03-10T10:29:18.455Z,130
2017-03-10T10:30:28.835Z,125
2017-03-10T10:31:38.827Z,130
2017-03-10T10:32:49.203Z,125
2017-03-10T10:33:59.199Z,125
2017-03-10T10:35:09.591Z,140
2017-03-10T10:36:20.398Z,145
2017-03-10T10:37:30.792Z,180
2017-03-10T10:38:40.792Z,200
2017-03-10T10:39:51.192Z,200
2017-03-10T10:41:01.615Z,195
2017-03-10T10:42:12.445Z,180
2017-03-10T10:43:22.840Z,170
2017-03-10T10:44:32.851Z,170
2017-03-10T10:45:43.638Z,160
2017-03-10T10:46:54.046Z,140
2017-03-10T10:48:04.850Z,160
2017-03-10T10:49:15.633Z,185
2017-03-10T10:50:26.015Z,180
2017-03-10T10:51:36.413Z,200
2017-03-10T10:52:47.211Z,195
2017-03-10T10:53:57.624Z,175
2017-03-10T10:55:08.061Z,150
2017-03-10T10:56:18.060Z,165
2017-03-10T10:57:28.463Z,150
2017-03-10T10:58:38.870Z,125
2017-03-10T10:59:49.648Z,125
2017-03-10T11:01:00.434Z,125
2017-03-10T11:02:10.049Z,110
2017-03-10T11:03:20.452Z,90
2017-03-10T11:04:30.859Z,95
2017-03-10T11:05:41.639Z,110
2017-03-10T11:06:52.427Z,105
2017-03-10T11:08:03.203Z,115
2017-03-10T11:09:14.012Z,145
2017-03-10T11:10:24.406Z,155
2017-03-10T11:11:34.791Z,160
2017-03-10T11:12:45.206Z,160
2017-03-10T11:13:55.611Z,145
2017-03-10T11:15:05.991Z,145
2017-03-10T11:16:16.796Z,150
2017-03-10T11:17:27.600Z,165
2017-03-10T11:18:38.385Z,170
2017-03-10T11:19:49.197Z,170
2017-03-10T11:20:59.202Z,200
2017-03-10T11:22:09.966Z,200
2017-03-10T11:23:20.756Z,200
2017-03-10T11:24:31.531Z,200
2017-03-10T11:25:42.355Z,205
2017-03-10T11:26:52.736Z,205
2017-03-10T11:28:03.504Z,210
2017-03-10T11:29:13.512Z,215
2017-03-10T11:30:23.495Z,205
2017-03-10T11:31:34.299Z,190
2017-03-10T11:32:45.074Z,170
2017-03-10T11:33:55.887Z,165
2017-03-10T11:35:06.686Z,160
2017-03-10T11:36:17.095Z,145
2017-03-10T11:37:27.873Z,115
2017-03-10T11:38:37.891Z,100
2017-03-10T11:39:48.686Z,90
2017-03-10T11:40:59.073Z,90
2017-03-10T11:42:09.856Z,105
2017-03-10T11:43:19.847Z,95
2017-03-10T11:44:30.663Z,90
2017-03-10T11:45:41.454Z,90
2017-03-10T11:46:51.857Z,90
2017-03-10T11:48:02.231Z,95
2017-03-10T11:49:12.641Z,95
2017-03-10T11:50:23.421Z,100
2017-03-10T11:51:33.826Z,90
2017-03-10T11:52:43.848Z,80
2017-03-10T11:53:54.648Z,95
2017-03-10T11:55:04.619Z,95
2017-03-10T11:56:14.987Z,95
2017-03-10T11:57:25.767Z,75
2017-03-10T11:58:36.162Z,75
2017-03-10T11:59:46.156Z,80
2017-03-10T12:00:56.945Z,80
2017-03-10T12:02:07.318Z,85
2017-03-10T12:03:17.705Z,85
2017-03-10T12:04:28.081Z,75
2017-03-10T12:05:38.875Z,70
2017-03-10T12:06:49.270Z,75
2017-03-10T12:08:00.068Z,75
2017-03-10T12:09:10.059Z,75
2017-03-10T12:10:20.491Z,65
2017-03-10T12:11:29.688Z,65
2017-03-10T12:12:40.055Z,70
2017-03-10T12:13:50.426Z,65
2017-03-10T12:15:01.247Z,65
2017-03-10T12:16:12.048Z,70
2017-03-10T12:17:22.501Z,85
2017-03-10T12:18:33.277Z,90
2017-03-10T12:19:44.044Z,90
2017-03-10T12:20:54.845Z,75
2017-03-10T12:22:05.232Z,65
2017-03-10T12:23:15.653Z,75
2017-03-10T12:24:26.065Z,70
2017-03-10T12:25:36.848Z,75
2017-03-10T12:26:47.639Z,85
2017-03-10T12:27:58.060Z,90
2017-03-10T12:29:08.494Z,90
2017-03-10T12:30:18.909Z,95
2017-03-10T12:31:28.546Z,105
2017-03-10T12:32:38.978Z,100
2017-03-10T12:33:49.404Z,95
2017-03-10T12:35:00.179Z,95
2017-03-10T12:36:10.946Z,95
2017-03-10T12:37:21.333Z,95
2017-03-10T12:38:32.107Z,90
2017-03-10T12:39:42.882Z,80
2017-03-10T12:40:53.300Z,80
2017-03-10T12:42:03.289Z,75
2017-03-10T12:43:13.951Z,75
2017-03-10T12:44:24.354Z,70
2017-03-10T12:45:36.437Z,65
2017-03-10T12:46:47.431Z,55
2017-03-10T12:47:58.056Z,55
2017-03-10T12:49:08.094Z,50
2017-03-10T12:50:18.523Z,40
2017-03-10T12:51:28.940Z,35
2017-03-10T12:52:39.371Z,40
2017-03-10T12:53:49.784Z,35
2017-03-10T12:55:00.185Z,40
2017-03-10T12:56:10.998Z,40
2017-03-10T12:57:21.412Z,40
2017-03-10T12:58:32.213Z,35
2017-03-10T12:59:42.637Z,40
2017-03-10T13:00:53.452Z,45
2017-03-10T13:02:03.080Z,50
2017-03-10T13:03:13.105Z,50
2017-03-10T13:04:23.902Z,50
2017-03-10T13:05:34.289Z,55
2017-03-10T13:06:45.099Z,60
2017-03-10T13:07:55.862Z,55
2017-03-10T13:09:06.276Z,60
2017-03-10T13:10:16.677Z,60
2017-03-10T13:11:26.674Z,55
2017-03-10T13:12:37.479Z,55
2017-03-10T13:13:47.877Z,50
2017-03-10T13:14:57.868Z,50
2017-03-10T13:16:08.702Z,50
2017-03-10T13:17:19.125Z,50
2017-03-10T13:18:29.911Z,50
2017-03-10T13:19:40.756Z,50
2017-03-10T13:20:51.592Z,45
2017-03-10T13:22:02.391Z,45
2017-03-10T13:23:12.796Z,50
2017-03-10T13:24:23.207Z,50
2017-03-10T13:25:33.233Z,50
2017-03-10T13:26:44.037Z,45
2017-03-10T13:27:54.852Z,45
2017-03-10T13:29:05.243Z,45
2017-03-10T13:30:16.024Z,45
2017-03-10T13:31:26.438Z,45
2017-03-10T13:32:36.878Z,40
2017-03-10T13:33:47.291Z,40
2017-03-10T13:34:57.685Z,35
2017-03-10T13:36:08.100Z,30
2017-03-10T13:37:18.931Z,30
2017-03-10T13:38:29.743Z,30
2017-03-10T13:39:40.535Z,25
2017-03-10T13:40:51.355Z,25
2017-03-10T13:42:02.165Z,25
2017-03-10T13:43:12.574Z,25
2017-03-10T13:44:22.975Z,25
2017-03-10T13:45:33.385Z,30
2017-03-10T13:46:43.386Z,25
2017-03-10T13:47:54.196Z,25
2017-03-10T13:49:04.596Z,25
2017-03-10T13:50:14.216Z,25
2017-03-10T13:51:24.658Z,25
2017-03-10T13:52:34.659Z,30
2017-03-10T13:53:45.092Z,30
2017-03-10T13:54:55.890Z,30
2017-03-10T13:56:06.679Z,30
2017-03-10T13:57:17.100Z,30
2017-03-10T13:58:27.502Z,30
2017-03-10T13:59:38.302Z,30
2017-03-10T14:00:48.715Z,30
2017-03-10T14:01:59.532Z,30
2017-03-10T14:03:09.929Z,30
2017-03-10T14:04:20.364Z,30
2017-03-10T14:05:30.379Z,30
2017-03-10T14:06:40.788Z,30
2017-03-10T14:07:51.614Z,35
2017-03-10T14:09:02.011Z,35
2017-03-10T14:10:12.039Z,35
2017-03-10T14:11:22.459Z,40
2017-03-10T14:12:33.265Z,45
2017-03-10T14:13:43.717Z,50
2017-03-10T14:14:54.139Z,50
2017-03-10T14:16:04.962Z,50
2017-03-10T14:17:15.363Z,45
2017-03-10T14:18:25.786Z,45
2017-03-10T14:19:36.190Z,45
2017-03-10T14:20:46.992Z,45
2017-03-10T14:21:57.390Z,45
2017-03-10T14:23:07.785Z,45
2017-03-10T14:24:18.614Z,40
2017-03-10T14:25:29.439Z,40
2017-03-10T14:26:39.840Z,40
2017-03-10T14:27:50.273Z,35
2017-03-10T14:29:00.694Z,35
2017-03-10T14:30:10.723Z,30
2017-03-10T14:31:21.771Z,30
2017-03-10T14:32:32.573Z,30
2017-03-10T14:33:42.964Z,40
2017-03-10T14:34:53.369Z,40
2017-03-10T14:36:04.173Z,40
2017-03-10T14:37:14.976Z,35
2017-03-10T14:38:26.006Z,30
2017-03-10T14:39:36.804Z,30
2017-03-10T14:40:47.627Z,30
2017-03-10T14:41:58.047Z,35
2017-03-10T14:43:08.489Z,35
2017-03-10T14:44:18.893Z,35
2017-03-10T14:45:29.318Z,35
2017-03-10T14:46:40.122Z,30
2017-03-10T14:47:50.563Z,30
2017-03-10T14:49:00.977Z,25
2017-03-10T14:50:11.385Z,25
2017-03-10T14:51:21.796Z,25
2017-03-10T14:52:31.825Z,25
2017-03-10T14:53:42.668Z,20
2017-03-10T14:54:53.071Z,15
2017-03-10T14:56:03.878Z,15
2017-03-10T14:57:14.637Z,15
2017-03-10T14:58:25.456Z,15
2017-03-10T14:59:36.270Z,15
2017-03-10T15:00:47.083Z,10
2017-03-10T15:01:57.508Z,10
2017-03-10T15:03:07.908Z,10
2017-03-10T15:04:18.738Z,10
2017-03-10T15:05:28.750Z,10
2017-03-10T15:06:39.569Z,10
2017-03-10T15:07:50.386Z,10
2017-03-10T15:09:01.163Z,10
2017-03-10T15:10:11.987Z,10
2017-03-10T15:11:22.788Z,10
2017-03-10T15:12:33.248Z,5
2017-03-10T15:13:43.654Z,5
2017-03-10T15:14:54.089Z,10
2017-03-10T15:16:04.867Z,10
2017-03-10T15:17:14.919Z,10
2017-03-10T15:18:25.326Z,10
2017-03-10T15:19:35.736Z,10
2017-03-10T15:20:45.805Z,10
2017-03-10T15:21:56.218Z,10
2017-03-10T15:23:06.626Z,10
2017-03-10T15:24:17.410Z,10
2017-03-10T15:25:27.403Z,10
2017-03-10T15:26:37.835Z,10
2017-03-10T15:27:47.471Z,10
2017-03-10T15:28:58.275Z,10
2017-03-10T15:30:09.074Z,10
2017-03-10T15:31:19.078Z,10
2017-03-10T15:32:29.483Z,10
2017-03-10T15:33:39.883Z,10
2017-03-10T15:34:50.271Z,10
2017-03-10T15:36:01.317Z,10
2017-03-10T15:37:12.116Z,10
2017-03-10T15:38:22.905Z,10
2017-03-10T15:39:33.685Z,10
2017-03-10T15:40:44.471Z,10
2017-03-10T15:41:55.269Z,15
2017-03-10T15:43:05.270Z,15
2017-03-10T15:44:15.667Z,15
2017-03-10T15:45:26.093Z,15
2017-03-10T15:46:36.490Z,15
2017-03-10T15:47:46.904Z,10
2017-03-10T15:48:57.721Z,10
2017-03-10T15:50:08.518Z,10
2017-03-10T15:51:18.904Z,10
2017-03-10T15:52:29.716Z,10
2017-03-10T15:53:40.523Z,15
2017-03-10T15:54:50.896Z,15
2017-03-10T15:56:01.733Z,15
2017-03-10T15:57:12.138Z,10
2017-03-10T15:58:22.941Z,10
2017-03-10T15:59:33.359Z,10
2017-03-10T16:00:43.783Z,10
2017-03-10T16:01:54.193Z,10
2017-03-10T16:03:03.790Z,5
2017-03-10T16:04:14.182Z,5
2017-03-10T16:05:24.970Z,5
2017-03-10T16:06:34.983Z,5
2017-03-10T16:07:45.403Z,5
2017-03-10T16:08:56.191Z,5
2017-03-10T16:10:06.609Z,5
2017-03-10T16:11:17.016Z,5
2017-03-10T16:12:27.436Z,5
2017-03-10T16:13:37.838Z,5
2017-03-10T16:14:48.267Z,5
2017-03-10T16:15:58.666Z,5
2017-03-10T16:17:09.472Z,5
2017-03-10T16:18:19.881Z,5
2017-03-10T16:19:30.714Z,5
2017-03-10T16:20:41.142Z,5
2017-03-10T16:21:51.528Z,5
2017-03-10T16:23:02.367Z,5
2017-03-10T16:24:13.158Z,5
2017-03-10T16:25:23.572Z,5
2017-03-10T16:26:33.590Z,5
2017-03-10T16:27:44.422Z,5
2017-03-10T16:28:55.214Z,5
2017-03-10T16:30:06.027Z,5
2017-03-10T16:31:16.840Z,5
2017-03-10T16:32:27.248Z,5
2017-03-10T16:33:37.656Z,5
2017-03-10T16:34:48.441Z,5
2017-03-10T16:35:58.863Z,5
2017-03-10T16:37:09.640Z,0
2017-03-10T16:38:20.493Z,0
2017-03-10T16:39:30.916Z,0
2017-03-10T16:40:41.729Z,0
2017-03-10T16:41:52.158Z,0
2017-03-10T16:43:02.958Z,0
2017-03-10T16:44:13.397Z,0
2017-03-10T16:45:23.393Z,0
2017-03-10T16:46:33.782Z,0
2017-03-10T16:47:44.198Z,0
2017-03-10T16:48:54.988Z,0
2017-03-10T16:50:05.400Z,0
2017-03-10T16:51:15.001Z,0
2017-03-10T16:52:25.829Z,0
2017-03-10T16:53:36.690Z,0
2017-03-10T16:54:47.752Z,0
2017-03-10T16:55:58.572Z,0
2017-03-10T16:57:09.381Z,0
2017-03-10T16:58:19.395Z,0
2017-03-10T16:59:29.399Z,0
2017-03-10T17:00:39.814Z,0
2017-03-10T17:01:50.605Z,0
2017-03-10T17:03:00.198Z,0
2017-03-10T17:04:10.625Z,0
2017-03-10T17:05:21.427Z,0
2017-03-10T17:06:31.872Z,0
2017-03-10T17:07:42.330Z,0
2017-03-10T17:08:53.151Z,0
2017-03-10T17:10:03.948Z,0
2017-03-10T17:11:13.924Z,0
2017-03-10T17:12:24.710Z,0
2017-03-10T17:13:35.495Z,0
2017-03-10T17:14:45.901Z,0
2017-03-10T17:15:56.335Z,0
2017-03-10T17:17:07.164Z,0
2017-03-10T17:18:17.982Z,0
2017-03-10T17:19:28.764Z,0